Time;durP1;ratioP1;P1;durP2;ratioP2;P2;SDS_P1;SDS_P2;PMS_P1;PMS_P2;Temp;Humidity;BMP_temperature;BMP_pressure;BME280_temperature;BME280_humidity;BME280_pressure;Samples;Min_cycle;Max_cycle;Signal;HPM_P1;HPM_P2
2021/09/07 00:01:04;;;;;;;;;;;;;;;17.77;69.65;100685.41;5014467;28;20316;-64
2021/09/07 00:03:50;;;;;;;;;;;;;;;17.76;69.70;100689.75;5015534;28;19929;-64
2021/09/07 00:06:37;;;;;;;;;;;;;;;17.76;69.45;100694.16;5015236;28;19996;-64
2021/09/07 00:09:21;;;;;;;;;;;;;;;17.74;69.47;100688.94;5014070;28;19975;-65
2021/09/07 00:12:08;;;;;;;;;;;;;;;17.75;69.54;100697.66;5014991;28;19944;-64
2021/09/07 00:14:52;;;;;;;;;;;;;;;17.73;69.53;100695.03;5013671;28;20419;-64
2021/09/07 00:17:39;;;;;;;;;;;;;;;17.72;69.88;100690.69;5014901;28;21018;-64
2021/09/07 00:20:23;;;;;;;;;;;;;;;17.71;69.60;100691.56;5014072;28;19928;-64
2021/09/07 00:23:07;;;;;;;;;;;;;;;17.70;69.58;100694.16;5014568;28;19928;-64
2021/09/07 00:25:51;;;;;;;;;;;;;;;17.69;69.50;100695.91;5014877;28;19928;-63
2021/09/07 00:28:38;;;;;;;;;;;;;;;17.71;69.77;100688.03;5013572;28;19932;-64
2021/09/07 00:31:25;;;;;;;;;;;;;;;17.69;69.61;100687.16;5014556;28;19929;-64
2021/09/07 00:34:09;;;;;;;;;;;;;;;17.69;69.67;100687.16;5013978;28;19987;-63
2021/09/07 00:36:53;;;;;;;;;;;;;;;17.70;69.60;100683.66;5014000;28;19928;-63
2021/09/07 00:39:36;;;;;;;;;;;;;;;17.69;69.69;100682.81;5014645;28;19944;-63
2021/09/07 00:42:23;;;;;;;;;;;;;;;17.69;69.66;100680.19;5014531;28;19943;-63
2021/09/07 00:45:12;;;;;;;;;;;;;;;17.71;69.83;100681.06;5014247;28;20006;-64
2021/09/07 00:47:59;;;;;;;;;;;;;;;17.70;69.69;100675.81;5012867;28;19929;-63
2021/09/07 00:50:43;;;;;;;;;;;;;;;17.71;69.69;100677.56;5014271;28;19928;-63
2021/09/07 00:53:27;;;;;;;;;;;;;;;17.72;69.85;100674.06;5013548;28;19976;-63
2021/09/07 00:56:14;;;;;;;;;;;;;;;17.72;69.89;100680.19;5013898;28;19975;-63
2021/09/07 00:59:02;;;;;;;;;;;;;;;17.71;69.92;100677.56;5012802;28;20020;-63
2021/09/07 01:01:47;;;;;;;;;;;;;;;17.71;69.84;100681.06;5013531;28;20296;-63
2021/09/07 01:04:32;;;;;;;;;;;;;;;17.72;69.93;100674.06;5013967;28;19929;-64
2021/09/07 01:07:19;;;;;;;;;;;;;;;17.71;69.82;100688.94;5014090;28;19929;-63
2021/09/07 01:10:07;;;;;;;;;;;;;;;17.70;69.77;100676.69;5014284;28;19929;-64
2021/09/07 01:12:57;;;;;;;;;;;;;;;17.70;69.66;100678.44;5013163;28;19972;-63
2021/09/07 01:15:41;;;;;;;;;;;;;;;17.69;69.79;100677.56;5014133;28;19983;-65
2021/09/07 01:18:25;;;;;;;;;;;;;;;17.69;69.78;100681.91;5014250;28;19975;-63
2021/09/07 01:21:13;;;;;;;;;;;;;;;17.69;69.77;100679.31;5013445;28;19932;-64
2021/09/07 01:24:00;;;;;;;;;;;;;;;17.68;69.94;100680.19;5013046;28;19928;-64
2021/09/07 01:26:47;;;;;;;;;;;;;;;17.67;69.76;100678.47;5013755;28;20056;-64
2021/09/07 01:29:33;;;;;;;;;;;;;;;17.65;69.85;100676.72;5014007;28;19944;-64
2021/09/07 01:32:19;;;;;;;;;;;;;;;17.64;69.92;100674.97;5013325;28;19948;-65
2021/09/07 01:35:06;;;;;;;;;;;;;;;17.63;69.96;100675.84;5013748;28;19943;-64
2021/09/07 01:37:50;;;;;;;;;;;;;;;17.63;69.93;100678.47;5013386;28;20408;-64
2021/09/07 01:40:37;;;;;;;;;;;;;;;17.62;69.92;100676.72;5013321;28;19972;-64
2021/09/07 01:43:24;;;;;;;;;;;;;;;17.61;70.02;100677.59;5012341;28;20404;-65
2021/09/07 01:46:12;;;;;;;;;;;;;;;17.59;70.31;100681.97;5013005;28;19928;-63
2021/09/07 01:48:59;;;;;;;;;;;;;;;17.58;69.94;100680.22;5012563;28;19929;-63
2021/09/07 01:51:43;;;;;;;;;;;;;;;17.59;69.98;100681.09;5013324;28;19944;-63
2021/09/07 01:54:30;;;;;;;;;;;;;;;17.57;70.19;100672.38;5012960;28;19928;-64
2021/09/07 01:57:15;;;;;;;;;;;;;;;17.56;70.00;100679.34;5013889;28;20403;-63
2021/09/07 01:59:59;;;;;;;;;;;;;;;17.54;70.06;100678.47;5012357;28;20012;-64
2021/09/07 02:02:43;;;;;;;;;;;;;;;17.53;69.86;100676.72;5013587;28;19929;-65
2021/09/07 02:05:27;;;;;;;;;;;;;;;17.52;70.04;100674.97;5017113;28;19928;-63
2021/09/07 02:08:10;;;;;;;;;;;;;;;17.50;69.99;100668.91;5015920;28;19928;-63
2021/09/07 02:10:57;;;;;;;;;;;;;;;17.50;69.92;100666.28;5017111;28;20331;-63
2021/09/07 02:13:42;;;;;;;;;;;;;;;17.48;70.09;100668.03;5017358;28;19963;-63
2021/09/07 02:16:26;;;;;;;;;;;;;;;17.47;70.09;100661.03;5015821;28;20495;-63
2021/09/07 02:19:09;;;;;;;;;;;;;;;17.46;70.08;100657.53;5017359;28;19931;-63
2021/09/07 02:21:53;;;;;;;;;;;;;;;17.44;69.98;100655.81;5016797;28;19929;-63
2021/09/07 02:24:43;;;;;;;;;;;;;;;17.42;70.06;100647.97;5017194;28;19928;-63
2021/09/07 02:27:27;;;;;;;;;;;;;;;17.42;70.20;100653.19;5016100;28;19928;-63
2021/09/07 02:30:11;;;;;;;;;;;;;;;17.42;70.20;100650.59;5016872;28;20081;-63
2021/09/07 02:33:01;;;;;;;;;;;;;;;17.43;70.13;100646.19;5016974;28;19932;-63
2021/09/07 02:35:45;;;;;;;;;;;;;;;17.44;70.15;100645.31;5015428;28;19967;-63
2021/09/07 02:38:29;;;;;;;;;;;;;;;17.43;70.04;100652.31;5016428;28;20394;-63
2021/09/07 02:41:13;;;;;;;;;;;;;;;17.43;70.12;100651.44;5016166;28;19945;-63
2021/09/07 02:43:57;;;;;;;;;;;;;;;17.40;70.07;100646.19;5015989;28;19980;-63
2021/09/07 02:46:44;;;;;;;;;;;;;;;17.39;70.09;100640.09;5015298;28;19929;-63
2021/09/07 02:49:30;;;;;;;;;;;;;;;17.39;70.25;100641.84;5016238;28;19929;-63
2021/09/07 02:52:14;;;;;;;;;;;;;;;17.39;70.17;100641.84;5014835;28;19932;-63
2021/09/07 02:55:01;;;;;;;;;;;;;;;17.39;70.06;100647.06;5015132;28;19968;-63
2021/09/07 02:57:48;;;;;;;;;;;;;;;17.37;70.09;100643.56;5016144;28;19971;-63
2021/09/07 03:00:32;;;;;;;;;;;;;;;17.37;70.19;100646.19;5015330;28;19928;-63
2021/09/07 03:03:16;;;;;;;;;;;;;;;17.35;70.30;100639.25;5016215;28;19928;-63
2021/09/07 03:06:01;;;;;;;;;;;;;;;17.35;70.27;100639.25;5015621;28;19928;-63
2021/09/07 03:08:44;;;;;;;;;;;;;;;17.34;70.10;100639.22;5015875;28;20395;-63
2021/09/07 03:11:28;;;;;;;;;;;;;;;17.33;70.05;100637.47;5016196;28;19929;-63
2021/09/07 03:14:12;;;;;;;;;;;;;;;17.33;70.15;100633.13;5015479;28;19968;-63
2021/09/07 03:16:59;;;;;;;;;;;;;;;17.31;70.27;100623.50;5015525;28;20016;-63
2021/09/07 03:19:43;;;;;;;;;;;;;;;17.30;70.29;100621.78;5015187;28;19975;-63
2021/09/07 03:22:30;;;;;;;;;;;;;;;17.29;70.04;100618.28;5016186;28;19944;-63
2021/09/07 03:25:14;;;;;;;;;;;;;;;17.28;70.04;100616.53;5014865;28;20019;-63
2021/09/07 03:27:58;;;;;;;;;;;;;;;17.28;70.42;100624.41;5014709;28;19928;-64
2021/09/07 03:30:42;;;;;;;;;;;;;;;17.28;70.05;100619.16;5015437;28;19968;-63
2021/09/07 03:33:25;;;;;;;;;;;;;;;17.27;70.24;100622.66;5015492;28;20372;-63
2021/09/07 03:36:09;;;;;;;;;;;;;;;17.28;70.35;100621.78;5015534;28;20020;-63
2021/09/07 03:38:53;;;;;;;;;;;;;;;17.27;70.33;100617.41;5015480;28;19928;-63
2021/09/07 03:41:37;;;;;;;;;;;;;;;17.28;70.11;100626.16;5015312;28;19929;-63
2021/09/07 03:44:22;;;;;;;;;;;;;;;17.26;70.23;100623.53;5014638;28;19928;-62
2021/09/07 03:47:06;;;;;;;;;;;;;;;17.26;70.23;100625.28;5015314;28;19929;-63
2021/09/07 03:49:50;;;;;;;;;;;;;;;17.24;70.30;100622.66;5014229;28;19928;-63
2021/09/07 03:52:34;;;;;;;;;;;;;;;17.24;70.38;100617.41;5015030;28;19928;-63
2021/09/07 03:55:18;;;;;;;;;;;;;;;17.24;70.30;100619.19;5015196;28;19991;-63
2021/09/07 03:58:02;;;;;;;;;;;;;;;17.23;70.25;100620.06;5015075;28;19928;-63
2021/09/07 04:00:46;;;;;;;;;;;;;;;17.23;70.18;100620.06;5013912;28;19979;-63
2021/09/07 04:03:29;;;;;;;;;;;;;;;17.22;70.42;100621.78;5015170;28;19928;-63
2021/09/07 04:06:13;;;;;;;;;;;;;;;17.21;70.34;100620.03;5014698;28;19945;-64
2021/09/07 04:08:57;;;;;;;;;;;;;;;17.19;70.21;100627.06;5014936;28;19928;-63
2021/09/07 04:11:41;;;;;;;;;;;;;;;17.18;70.45;100620.94;5013721;28;20400;-62
2021/09/07 04:14:28;;;;;;;;;;;;;;;17.17;70.39;100623.56;5015215;28;19948;-63
2021/09/07 04:17:12;;;;;;;;;;;;;;;17.17;70.31;100628.81;5014888;28;19929;-62
2021/09/07 04:19:59;;;;;;;;;;;;;;;17.16;70.33;100624.44;5014696;28;19928;-64
2021/09/07 04:22:46;;;;;;;;;;;;;;;17.15;70.32;100635.78;5014457;28;19928;-64
2021/09/07 04:25:30;;;;;;;;;;;;;;;17.12;70.33;100628.81;5013947;28;20281;-64
2021/09/07 04:28:15;;;;;;;;;;;;;;;17.13;70.31;100632.28;5014697;28;20288;-64
2021/09/07 04:31:04;;;;;;;;;;;;;;;17.12;70.28;100628.81;5014473;28;20398;-64
2021/09/07 04:33:48;;;;;;;;;;;;;;;17.12;70.25;100633.16;5013589;28;19929;-63
2021/09/07 04:36:32;;;;;;;;;;;;;;;17.10;70.23;100627.06;5014378;28;19948;-63
2021/09/07 04:39:16;;;;;;;;;;;;;;;17.09;70.31;100628.81;5013672;28;19928;-63
2021/09/07 04:42:00;;;;;;;;;;;;;;;17.09;70.30;100631.44;5014005;28;19928;-65
2021/09/07 04:44:44;;;;;;;;;;;;;;;17.07;70.45;100624.44;5014721;28;19928;-64
2021/09/07 04:47:27;;;;;;;;;;;;;;;17.07;70.41;100627.06;5014391;28;19928;-63
2021/09/07 04:50:11;;;;;;;;;;;;;;;17.05;70.31;100625.31;5014447;28;19975;-64
2021/09/07 04:52:57;;;;;;;;;;;;;;;17.05;70.48;100627.06;5013563;28;19978;-63
2021/09/07 04:55:41;;;;;;;;;;;;;;;17.04;70.23;100626.22;5013873;28;19927;-63
2021/09/07 04:58:25;;;;;;;;;;;;;;;17.04;70.48;100625.31;5014276;28;19932;-63
2021/09/07 05:01:12;;;;;;;;;;;;;;;17.03;70.37;100632.31;5013843;28;20021;-63
2021/09/07 05:03:56;;;;;;;;;;;;;;;17.01;70.49;100636.69;5013143;28;20392;-64
2021/09/07 05:06:40;;;;;;;;;;;;;;;17.02;70.34;100633.19;5014216;28;19929;-63
2021/09/07 05:09:24;;;;;;;;;;;;;;;17.01;70.43;100626.22;5014381;28;19929;-64
2021/09/07 05:12:08;;;;;;;;;;;;;;;17.00;70.44;100631.44;5013862;28;19928;-64
2021/09/07 05:14:52;;;;;;;;;;;;;;;16.99;70.45;100633.19;5013580;28;19929;-63
2021/09/07 05:17:39;;;;;;;;;;;;;;;16.96;70.44;100627.94;5013068;28;20379;-63
2021/09/07 05:20:23;;;;;;;;;;;;;;;16.96;70.20;100641.03;5013202;28;19929;-63
2021/09/07 05:23:07;;;;;;;;;;;;;;;16.95;70.34;100636.69;5013208;28;19928;-63
2021/09/07 05:25:51;;;;;;;;;;;;;;;16.96;70.19;100634.94;5013901;28;19928;-64
2021/09/07 05:28:35;;;;;;;;;;;;;;;16.95;70.39;100634.06;5013302;28;20020;-63
2021/09/07 05:31:21;;;;;;;;;;;;;;;16.95;70.29;100627.97;5012942;28;20028;-63
2021/09/07 05:34:08;;;;;;;;;;;;;;;16.95;70.23;100634.06;5012828;28;19931;-63
2021/09/07 05:36:55;;;;;;;;;;;;;;;16.95;70.30;100636.69;5013443;28;20431;-63
2021/09/07 05:39:41;;;;;;;;;;;;;;;16.94;69.94;100650.59;5016773;28;19928;-63
2021/09/07 05:42:25;;;;;;;;;;;;;;;16.93;70.15;100654.09;5017597;28;19948;-63
2021/09/07 05:45:10;;;;;;;;;;;;;;;16.93;70.18;100646.25;5016218;28;19933;-64
2021/09/07 05:47:54;;;;;;;;;;;;;;;16.93;70.18;100646.25;5017727;28;20392;-63
2021/09/07 05:50:38;;;;;;;;;;;;;;;16.93;70.26;100648.00;5017886;28;19928;-63
2021/09/07 05:53:22;;;;;;;;;;;;;;;16.93;70.23;100648.84;5016991;28;19928;-63
2021/09/07 05:56:10;;;;;;;;;;;;;;;16.92;70.25;100652.34;5016936;28;19927;-63
2021/09/07 05:58:57;;;;;;;;;;;;;;;16.92;70.29;100654.97;5016505;28;19983;-63
2021/09/07 06:01:41;;;;;;;;;;;;;;;16.90;70.22;100652.38;5016248;28;20400;-62
2021/09/07 06:04:27;;;;;;;;;;;;;;;16.91;70.26;100647.97;5017286;28;20320;-64
2021/09/07 06:07:20;;;;;;;;;;;;;;;16.90;70.18;100648.84;5017395;28;19971;-64
2021/09/07 06:10:08;;;;;;;;;;;;;;;16.89;70.12;100647.13;5016633;28;20388;-64
2021/09/07 06:13:00;;;;;;;;;;;;;;;16.90;70.14;100651.47;5015884;28;19929;-64
2021/09/07 06:15:44;;;;;;;;;;;;;;;16.90;70.17;100654.09;5016463;28;20017;-64
2021/09/07 06:18:30;;;;;;;;;;;;;;;16.92;69.97;100654.97;5017305;28;19927;-64
2021/09/07 06:21:14;;;;;;;;;;;;;;;16.91;70.22;100661.06;5016029;28;20288;-64
2021/09/07 06:23:58;;;;;;;;;;;;;;;16.93;70.26;100661.09;5016842;28;19928;-65
2021/09/07 06:26:44;;;;;;;;;;;;;;;16.93;70.20;100667.19;5016860;28;20316;-65
2021/09/07 06:29:31;;;;;;;;;;;;;;;16.93;70.02;100659.31;5016843;28;19928;-64
2021/09/07 06:32:16;;;;;;;;;;;;;;;16.93;70.18;100663.72;5016929;28;19991;-64
2021/09/07 06:35:00;;;;;;;;;;;;;;;16.95;70.14;100662.84;5016967;28;19928;-64
2021/09/07 06:37:44;;;;;;;;;;;;;;;16.96;70.20;100671.59;5016502;28;20300;-63
2021/09/07 06:40:28;;;;;;;;;;;;;;;16.96;70.28;100666.38;5016624;28;19984;-64
2021/09/07 06:43:12;;;;;;;;;;;;;;;16.97;70.18;100660.25;5016641;28;19944;-64
2021/09/07 06:45:56;;;;;;;;;;;;;;;16.97;70.26;100663.72;5016393;28;19945;-64
2021/09/07 06:48:40;;;;;;;;;;;;;;;16.98;70.16;100668.09;5016795;28;19995;-64
2021/09/07 06:51:23;;;;;;;;;;;;;;;16.98;70.12;100668.09;5016370;28;19967;-64
2021/09/07 06:54:08;;;;;;;;;;;;;;;16.99;69.95;100669.84;5016618;28;19949;-64
2021/09/07 06:56:51;;;;;;;;;;;;;;;17.00;70.09;100673.31;5015802;28;20463;-64
2021/09/07 06:59:35;;;;;;;;;;;;;;;17.02;69.99;100677.72;5016110;28;19932;-64
2021/09/07 07:02:19;;;;;;;;;;;;;;;17.03;70.15;100673.31;5015551;28;20032;-64
2021/09/07 07:05:04;;;;;;;;;;;;;;;17.04;70.13;100678.59;5014959;28;19972;-64
2021/09/07 07:07:48;;;;;;;;;;;;;;;17.05;69.84;100680.28;5015630;28;19928;-65
2021/09/07 07:10:32;;;;;;;;;;;;;;;17.07;70.47;100680.31;5015669;28;20007;-65
2021/09/07 07:13:16;;;;;;;;;;;;;;;17.07;70.02;100682.94;5016266;28;19932;-64
2021/09/07 07:15:59;;;;;;;;;;;;;;;17.08;70.25;100683.78;5015669;28;19928;-64
2021/09/07 07:18:43;;;;;;;;;;;;;;;17.09;70.18;100685.53;5015862;28;19928;-63
2021/09/07 07:21:29;;;;;;;;;;;;;;;17.09;70.23;100685.53;5015855;28;20024;-63
2021/09/07 07:24:14;;;;;;;;;;;;;;;17.10;70.22;100684.66;5015126;28;19928;-64
2021/09/07 07:27:00;;;;;;;;;;;;;;;17.10;70.17;100687.28;5015111;28;19975;-64
2021/09/07 07:29:44;;;;;;;;;;;;;;;17.11;70.34;100679.44;5015047;28;20435;-63
2021/09/07 07:32:28;;;;;;;;;;;;;;;17.13;70.17;100687.28;5028703;28;20399;-63
2021/09/07 07:35:12;;;;;;;;;;;;;;;17.14;70.19;100689.03;5015661;28;19928;-63
2021/09/07 07:37:56;;;;;;;;;;;;;;;17.16;70.37;100687.28;5015717;28;20415;-64
2021/09/07 07:40:40;;;;;;;;;;;;;;;17.17;70.06;100683.81;5015149;28;19971;-63
2021/09/07 07:43:25;;;;;;;;;;;;;;;17.17;70.22;100684.66;5014597;28;19929;-65
2021/09/07 07:46:10;;;;;;;;;;;;;;;17.20;70.33;100684.66;5014652;28;19931;-63
2021/09/07 07:48:54;;;;;;;;;;;;;;;17.22;70.40;100681.16;5015636;28;19976;-65
2021/09/07 07:51:38;;;;;;;;;;;;;;;17.24;70.32;100676.81;5014664;28;20439;-64
2021/09/07 07:54:25;;;;;;;;;;;;;;;17.26;70.15;100681.16;5015307;28;19928;-64
2021/09/07 07:57:12;;;;;;;;;;;;;;;17.27;70.20;100677.66;5015516;28;20076;-63
2021/09/07 07:59:56;;;;;;;;;;;;;;;17.29;70.10;100680.28;5014234;28;20400;-63
2021/09/07 08:02:41;;;;;;;;;;;;;;;17.31;70.06;100684.66;5013653;28;19987;-64
2021/09/07 08:05:28;;;;;;;;;;;;;;;17.34;70.27;100689.00;5013950;28;20020;-63
2021/09/07 08:08:12;;;;;;;;;;;;;;;17.35;70.15;100696.88;5014385;28;19989;-63
2021/09/07 08:10:59;;;;;;;;;;;;;;;17.38;70.42;100698.63;5015000;28;20284;-63
2021/09/07 08:13:44;;;;;;;;;;;;;;;17.40;69.98;100706.47;5015309;28;20285;-64
2021/09/07 08:16:28;;;;;;;;;;;;;;;17.41;70.20;100711.72;5014114;28;19930;-63
2021/09/07 08:19:12;;;;;;;;;;;;;;;17.43;70.10;100709.06;5014641;28;20399;-63
2021/09/07 08:21:56;;;;;;;;;;;;;;;17.44;70.24;100710.81;5014401;28;19932;-63
2021/09/07 08:24:40;;;;;;;;;;;;;;;17.46;70.16;100709.06;5014826;28;19929;-63
2021/09/07 08:27:26;;;;;;;;;;;;;;;17.48;69.88;100715.19;5014374;28;19967;-63
2021/09/07 08:30:10;;;;;;;;;;;;;;;17.48;70.13;100708.19;5014251;28;19929;-63
2021/09/07 08:32:57;;;;;;;;;;;;;;;17.52;70.00;100703.81;5014377;28;19929;-65
2021/09/07 08:35:42;;;;;;;;;;;;;;;17.55;69.98;100708.19;5013928;28;19964;-65
2021/09/07 08:38:26;;;;;;;;;;;;;;;17.55;69.96;100709.03;5013805;28;19976;-63
2021/09/07 08:41:14;;;;;;;;;;;;;;;17.57;70.17;100699.44;5014491;28;19928;-63
2021/09/07 08:43:59;;;;;;;;;;;;;;;17.62;69.88;100702.03;5013776;28;19979;-63
2021/09/07 08:46:43;;;;;;;;;;;;;;;17.63;69.90;100703.78;5014211;28;19928;-65
2021/09/07 08:49:27;;;;;;;;;;;;;;;17.67;69.94;100702.91;5014590;28;20273;-62
2021/09/07 08:52:14;;;;;;;;;;;;;;;17.70;70.41;100704.63;5014299;28;19927;-64
2021/09/07 08:54:57;;;;;;;;;;;;;;;17.72;69.91;100703.78;5013349;28;19975;-63
2021/09/07 08:57:41;;;;;;;;;;;;;;;17.75;69.97;100705.50;5013829;28;20451;-63
2021/09/07 09:00:29;;;;;;;;;;;;;;;17.77;69.94;100707.25;5013557;28;19948;-63
2021/09/07 09:03:13;;;;;;;;;;;;;;;17.80;69.88;100701.13;5013905;28;19967;-64
2021/09/07 09:06:00;;;;;;;;;;;;;;;17.84;69.82;100704.59;5014100;28;19944;-63
2021/09/07 09:08:44;;;;;;;;;;;;;;;17.84;69.85;100700.22;5013679;28;19968;-63
2021/09/07 09:11:48;;;;;;;;;;;;;;;17.86;69.96;100706.34;5012902;28;19928;-63
2021/09/07 09:14:36;;;;;;;;;;;;;;;17.88;69.68;100703.72;5017049;28;19928;-65
2021/09/07 09:17:22;;;;;;;;;;;;;;;17.90;69.83;100702.84;5017158;28;19928;-64
2021/09/07 09:20:08;;;;;;;;;;;;;;;17.91;69.73;100699.34;5017105;28;20024;-65
2021/09/07 09:22:56;;;;;;;;;;;;;;;17.95;69.60;100705.44;5016911;28;20289;-65
2021/09/07 09:25:47;;;;;;;;;;;;;;;17.96;69.61;100704.56;5017437;28;19980;-64
2021/09/07 09:28:31;;;;;;;;;;;;;;;17.98;69.50;100708.06;5018326;28;19984;-63
2021/09/07 09:31:18;;;;;;;;;;;;;;;18.01;69.65;100705.44;5016492;28;20360;-64
2021/09/07 09:34:02;;;;;;;;;;;;;;;18.03;69.49;100702.81;5017420;28;20036;-64
2021/09/07 09:37:05;;;;;;;;;;;;;;;18.05;69.43;100701.94;5017172;28;20337;-63
2021/09/07 09:39:50;;;;;;;;;;;;;;;18.07;69.43;100700.16;5016542;28;20447;-65
2021/09/07 09:42:34;;;;;;;;;;;;;;;18.10;69.56;100701.91;5017718;28;19964;-64
2021/09/07 09:45:18;;;;;;;;;;;;;;;18.12;69.43;100702.78;5018035;28;20455;-63
2021/09/07 09:48:05;;;;;;;;;;;;;;;18.14;69.36;100690.50;5017458;28;19944;-63
2021/09/07 09:50:50;;;;;;;;;;;;;;;18.17;69.48;100694.88;5016539;28;19948;-63
2021/09/07 09:53:34;;;;;;;;;;;;;;;18.19;69.25;100703.63;5017642;28;19929;-63
2021/09/07 09:56:18;;;;;;;;;;;;;;;18.21;69.42;100702.72;5017294;28;19976;-64
2021/09/07 09:59:02;;;;;;;;;;;;;;;18.23;69.40;100698.34;5017846;28;19976;-62
2021/09/07 10:01:46;;;;;;;;;;;;;;;18.26;69.36;100700.97;5016200;28;19944;-63
2021/09/07 10:04:30;;;;;;;;;;;;;;;18.28;69.35;100689.59;5017622;28;19928;-63
2021/09/07 10:07:17;;;;;;;;;;;;;;;18.29;69.23;100684.31;5017396;28;19928;-63
2021/09/07 10:10:02;;;;;;;;;;;;;;;18.30;69.27;100686.06;5017167;28;20292;-64
2021/09/07 10:12:54;;;;;;;;;;;;;;;18.32;69.21;100676.44;5016438;28;19929;-64
2021/09/07 10:15:44;;;;;;;;;;;;;;;18.34;69.08;100682.56;5016212;28;19979;-64
2021/09/07 10:24:42;;;;;;;;;;;;;;;18.38;68.98;100671.13;5015841;28;19968;-63
2021/09/07 10:27:48;;;;;;;;;;;;;;;18.40;68.70;100668.53;5016786;28;19929;-63
2021/09/07 10:30:51;;;;;;;;;;;;;;;18.41;68.83;100662.41;5016858;28;20391;-63
2021/09/07 10:33:41;;;;;;;;;;;;;;;18.44;68.88;100658.88;5015953;28;20289;-63
2021/09/07 10:36:26;;;;;;;;;;;;;;;18.45;68.66;100660.63;5016556;28;20051;-63
2021/09/07 10:39:24;;;;;;;;;;;;;;;18.47;68.86;100662.34;5016691;28;19929;-63
2021/09/07 10:42:10;;;;;;;;;;;;;;;18.50;68.74;100650.97;5015571;28;20016;-63
2021/09/07 10:44:59;;;;;;;;;;;;;;;18.52;68.79;100650.06;5015616;28;19928;-63
2021/09/07 10:47:46;;;;;;;;;;;;;;;18.54;68.67;100648.31;5016182;28;19928;-63
2021/09/07 10:50:48;;;;;;;;;;;;;;;18.56;68.47;100645.66;5015062;28;19968;-63
2021/09/07 10:53:32;;;;;;;;;;;;;;;18.56;68.60;100638.66;5015941;28;20059;-63
2021/09/07 10:56:31;;;;;;;;;;;;;;;18.59;68.46;100637.75;5016278;28;19929;-63
2021/09/07 10:59:34;;;;;;;;;;;;;;;18.61;68.37;100638.63;5015349;28;19927;-64
2021/09/07 11:02:37;;;;;;;;;;;;;;;18.63;68.50;100633.34;5016028;28;20353;-63
2021/09/07 11:05:28;;;;;;;;;;;;;;;18.64;68.48;100628.09;5015139;28;20059;-63
2021/09/07 11:08:43;;;;;;;;;;;;;;;18.67;68.38;100627.19;5015504;28;19928;-63
2021/09/07 11:11:32;;;;;;;;;;;;;;;18.68;68.44;100621.97;5015371;28;19980;-63
2021/09/07 11:14:22;;;;;;;;;;;;;;;18.72;68.43;100622.78;5015587;28;20347;-63
2021/09/07 11:17:13;;;;;;;;;;;;;;;18.74;68.40;100620.13;5015001;28;19967;-63
2021/09/07 11:20:08;;;;;;;;;;;;;;;18.75;68.24;100617.53;5015083;28;19987;-63
2021/09/07 11:22:55;;;;;;;;;;;;;;;18.77;68.36;100618.34;5015027;28;20392;-63
2021/09/07 11:25:46;;;;;;;;;;;;;;;18.78;68.38;100614.84;5014554;28;20301;-63
2021/09/07 11:28:31;;;;;;;;;;;;;;;18.80;68.18;100613.06;5014527;28;19968;-64
2021/09/07 11:31:20;;;;;;;;;;;;;;;18.82;68.40;100608.69;5014896;28;19975;-64
2021/09/07 11:34:16;;;;;;;;;;;;;;;18.85;68.23;100613.03;5014593;28;19927;-63
2021/09/07 11:37:16;;;;;;;;;;;;;;;18.87;68.19;100609.53;5013867;28;19927;-63
2021/09/07 11:40:10;;;;;;;;;;;;;;;18.90;68.19;100606.00;5014135;28;20013;-63
2021/09/07 11:43:03;;;;;;;;;;;;;;;18.94;68.22;100610.38;5014802;28;19928;-63
2021/09/07 11:45:49;;;;;;;;;;;;;;;18.97;68.38;100609.47;5014579;28;20284;-63
2021/09/07 11:48:39;;;;;;;;;;;;;;;18.97;68.34;100605.09;5015462;28;19928;-63
2021/09/07 11:51:29;;;;;;;;;;;;;;;19.01;68.21;100606.78;5014673;28;19928;-63
2021/09/07 11:54:22;;;;;;;;;;;;;;;19.04;68.25;100605.91;5014489;28;19928;-63
2021/09/07 11:57:09;;;;;;;;;;;;;;;19.07;68.18;100602.34;5015513;28;19982;-64
2021/09/07 12:00:01;;;;;;;;;;;;;;;19.09;68.19;100597.97;5013694;28;19968;-64
2021/09/07 12:02:45;;;;;;;;;;;;;;;19.09;68.21;100604.06;5013939;28;20470;-65
2021/09/07 12:05:49;;;;;;;;;;;;;;;19.12;68.41;100596.16;5015349;28;20398;-64
2021/09/07 12:08:39;;;;;;;;;;;;;;;19.12;68.23;100596.16;5014164;28;19948;-63
2021/09/07 12:11:31;;;;;;;;;;;;;;;19.16;68.14;100589.13;5014930;28;19929;-63
2021/09/07 12:14:19;;;;;;;;;;;;;;;19.17;68.20;100578.59;5014188;28;19948;-63
2021/09/07 12:17:04;;;;;;;;;;;;;;;19.20;68.24;100584.72;5014263;28;19983;-62
2021/09/07 12:19:55;;;;;;;;;;;;;;;19.21;68.31;100570.69;5014954;28;19928;-62
2021/09/07 12:22:48;;;;;;;;;;;;;;;19.22;68.23;100569.81;5013280;28;19928;-63
2021/09/07 12:25:46;;;;;;;;;;;;;;;19.24;68.17;100573.25;5014565;28;19927;-63
2021/09/07 12:28:33;;;;;;;;;;;;;;;19.26;68.32;100576.75;5014065;28;19929;-64
2021/09/07 12:31:26;;;;;;;;;;;;;;;19.27;68.20;100570.63;5014876;28;19929;-64
2021/09/07 12:34:18;;;;;;;;;;;;;;;19.28;68.19;100564.47;5013788;28;19928;-64
2021/09/07 12:37:03;;;;;;;;;;;;;;;19.30;68.23;100567.94;5013851;28;19928;-64
2021/09/07 12:39:47;;;;;;;;;;;;;;;19.31;68.22;100564.44;5014128;28;19928;-64
2021/09/07 12:42:34;;;;;;;;;;;;;;;19.31;68.27;100548.66;5013988;28;19928;-64
2021/09/07 12:45:20;;;;;;;;;;;;;;;19.33;68.24;100552.16;5013537;28;19929;-64
2021/09/07 12:48:10;;;;;;;;;;;;;;;19.33;68.06;100546.91;5013907;28;19929;-63
2021/09/07 12:50:54;;;;;;;;;;;;;;;19.32;68.09;100548.63;5014716;28;19929;-64
2021/09/07 12:53:45;;;;;;;;;;;;;;;19.31;68.01;100544.28;5013694;28;19928;-64
2021/09/07 12:56:33;;;;;;;;;;;;;;;19.30;68.10;100547.81;5013665;28;19928;-64
2021/09/07 12:59:17;;;;;;;;;;;;;;;19.27;68.09;100545.22;5013392;28;19928;-64
2021/09/07 13:02:04;;;;;;;;;;;;;;;19.26;68.03;100538.22;5013778;28;19976;-64
2021/09/07 13:04:50;;;;;;;;;;;;;;;19.27;68.00;100534.72;5013678;28;20399;-64
2021/09/07 13:07:40;;;;;;;;;;;;;;;19.26;67.97;100532.97;5013008;28;19972;-64
2021/09/07 13:10:24;;;;;;;;;;;;;;;19.28;67.96;100530.31;5013024;28;20293;-64
2021/09/07 13:13:08;;;;;;;;;;;;;;;19.28;67.94;100531.19;5014350;28;20027;-64
2021/09/07 13:15:58;;;;;;;;;;;;;;;19.28;67.87;100528.56;5014287;28;19929;-64
2021/09/07 13:18:47;;;;;;;;;;;;;;;19.29;67.94;100521.53;5013514;28;20019;-64
2021/09/07 13:21:34;;;;;;;;;;;;;;;19.29;67.73;100527.69;5012659;28;19929;-64
2021/09/07 13:24:18;;;;;;;;;;;;;;;19.31;67.85;100525.03;5013239;28;20387;-64
2021/09/07 13:27:08;;;;;;;;;;;;;;;19.31;67.84;100520.63;5012760;28;19929;-64
2021/09/07 13:29:54;;;;;;;;;;;;;;;19.32;67.95;100525.00;5012802;28;19928;-63
2021/09/07 13:32:38;;;;;;;;;;;;;;;19.34;67.85;100511.84;5014025;28;19964;-64
2021/09/07 13:35:25;;;;;;;;;;;;;;;19.36;67.75;100514.44;5013721;28;19928;-63
2021/09/07 13:38:10;;;;;;;;;;;;;;;19.38;67.80;100510.03;5013136;28;19971;-64
2021/09/07 13:40:54;;;;;;;;;;;;;;;19.39;67.88;100507.38;5013916;28;19928;-64
2021/09/07 13:43:38;;;;;;;;;;;;;;;19.41;67.79;100496.88;5013728;28;19928;-64
2021/09/07 13:46:24;;;;;;;;;;;;;;;19.44;67.84;100502.09;5013859;28;20399;-63
2021/09/07 13:49:21;;;;;;;;;;;;;;;19.45;67.83;100493.31;5013694;28;19928;-62
2021/09/07 13:52:05;;;;;;;;;;;;;;;19.45;67.79;100493.31;5013689;28;19964;-63
2021/09/07 13:54:51;;;;;;;;;;;;;;;19.46;67.75;100490.66;5012504;28;19929;-63
2021/09/07 13:57:35;;;;;;;;;;;;;;;19.45;67.73;100496.81;5012864;28;19928;-63
2021/09/07 14:00:19;;;;;;;;;;;;;;;19.47;67.82;100486.25;5014856;28;19954;-64
2021/09/07 14:03:03;;;;;;;;;;;;;;;19.48;67.71;100481.00;5016946;28;19928;-64
2021/09/07 14:05:50;;;;;;;;;;;;;;;19.48;67.73;100486.25;5016337;28;19971;-63
2021/09/07 14:08:34;;;;;;;;;;;;;;;19.51;67.74;100484.47;5016491;28;19928;-64
2021/09/07 14:11:18;;;;;;;;;;;;;;;19.52;67.66;100481.81;5016777;28;20446;-63
2021/09/07 14:14:02;;;;;;;;;;;;;;;19.52;67.75;100476.56;5017529;28;19928;-63
2021/09/07 14:16:46;;;;;;;;;;;;;;;19.54;67.53;100469.53;5017057;28;19933;-63
2021/09/07 14:19:35;;;;;;;;;;;;;;;19.54;67.65;100472.16;5015984;28;19953;-63